Guadalupe — WDG4440 — position and weather

sailwx.info

Track history (hours):
 
Tides and Currents Weather Stations Pressure Air Temp Water Temp Dewpoint Dewpoint Depression Visibility Wind Speed Wind Dir Waves Ship Positions

Guadalupe

Owner: Higman Barge Lines., Inc, Orange, TX. More information available from US FCC via Universal Licensing System and Coast Guard Vessel Documentation Center.

Last reported at 2017-Sep-03 05:21 UTC. Time now 2017-Sep-23 03:43 UTC.
Position N 29°34' W 090°23'.
Warning: this ship's position is 19 days out of date.

Length 26 m; draft 3 m.

Type: Towing. MMSI: 367536590.

Date/timePositionNaut miles runAvg speedWind from/ knotsBaromVisibWave heightAir tempDewpointWater temp
2017-Sep-03 05:21N 29°34' W 090°23'1 4.0
2017-Sep-03 05:00N 29°33' W 090°24'2 4.8
2017-Sep-03 04:30N 29°33' W 090°26'3 5.5
2017-Sep-03 04:00N 29°34' W 090°30'3 5.9
2017-Sep-03 03:30N 29°34' W 090°33'3 5.3
2017-Sep-03 03:00N 29°35' W 090°36'2 4.9
2017-Sep-03 02:30N 29°35' W 090°38'2 4.6
2017-Sep-03 02:00N 29°36' W 090°41'1 2.9
2017-Sep-03 01:30N 29°36' W 090°43'2 4.0
2017-Sep-03 01:00N 29°34' W 090°43'2 4.8
2017-Sep-03 00:30N 29°33' W 090°45'3 6.3
2017-Sep-03 00:00N 29°32' W 090°49'5 6.7
2017-Sep-02 23:17N 29°33' W 090°54'2 7.0
2017-Sep-02 23:00N 29°34' W 090°56'54 4.0
2017-Sep-02 09:20N 29°51' W 091°56'1 4.3
2017-Sep-02 09:00N 29°50' W 091°58'3 5.3
2017-Sep-02 08:31N 29°50' W 092°00'2 3.9
2017-Sep-02 08:01N 29°49' W 092°03'3 5.5
2017-Sep-02 07:30N 29°48' W 092°06'3 5.5
2017-Sep-02 07:01N 29°47' W 092°09'2 4.9
2017-Sep-02 06:31N 29°47' W 092°11'2 3.6
2017-Sep-02 06:01N 29°47' W 092°13'3 5.0
2017-Sep-02 05:30N 29°48' W 092°16'3 5.5
2017-Sep-02 05:00N 29°50' W 092°18'3 5.6
2017-Sep-02 04:30N 29°51' W 092°22'36 4.8
2017-Sep-01 20:59N 29°56' W 093°02'2 4.1
2017-Sep-01 20:29N 29°56' W 093°05'2 4.6
2017-Sep-01 20:00N 29°56' W 093°07'2 4.6
2017-Sep-01 19:30N 29°57' W 093°10'2 4.1
2017-Sep-01 19:00N 29°58' W 093°11'2 4.9
2017-Sep-01 18:30N 29°60' W 093°13'2 4.3
2017-Sep-01 18:00N 30°02' W 093°15'2 4.0
2017-Sep-01 17:30N 30°04' W 093°16'2 4.4
2017-Sep-01 16:58N 30°05' W 093°18'1 2.3
2017-Sep-01 16:29N 30°06' W 093°18'1 1.9
2017-Sep-01 16:00N 30°06' W 093°19'2 3.9
2017-Sep-01 15:30N 30°04' W 093°21'2 3.2
2017-Sep-01 15:00N 30°04' W 093°23'1 2.6
2017-Sep-01 14:30N 30°04' W 093°24'0 0.1
2017-Sep-01 14:00N 30°04' W 093°24'1 1.7
2017-Sep-01 13:31N 30°04' W 093°25'3 5.4
2017-Sep-01 13:00N 30°04' W 093°28'3 6.0
2017-Sep-01 12:30N 30°04' W 093°32'3 6.3
2017-Sep-01 12:00N 30°04' W 093°35'1 1.9
2017-Sep-01 11:28N 30°04' W 093°36'0 0.0
2017-Sep-01 10:58N 30°04' W 093°37'0 0.0
2017-Sep-01 10:28N 30°04' W 093°37'0 0.0
2017-Sep-01 09:52N 30°04' W 093°37'0 0.0
2017-Sep-01 09:28N 30°04' W 093°37'0 0.0
2017-Sep-01 08:58N 30°04' W 093°37'0 0.0
2017-Sep-01 08:22N 30°04' W 093°37'0 0.0
2017-Sep-01 07:58N 30°04' W 093°37'0 0.0
2017-Sep-01 07:28N 30°04' W 093°37'0 0.0
2017-Sep-01 06:58N 30°04' W 093°37'0 0.0
2017-Sep-01 06:28N 30°04' W 093°37'0 0.0
2017-Sep-01 05:58N 30°04' W 093°37'0 0.0
2017-Sep-01 05:25N 30°04' W 093°37'0 0.0
2017-Sep-01 04:58N 30°04' W 093°37'0 0.0
2017-Sep-01 04:28N 30°04' W 093°37'0 0.2
2017-Sep-01 04:00N 30°04' W 093°37'2 4.2
2017-Sep-01 03:30N 30°04' W 093°39'2 4.3
2017-Sep-01 03:01N 30°04' W 093°42'  
2017-Aug-25 04:31N 30°05' W 093°44'0 0.6
2017-Aug-25 04:30N 30°05' W 093°44'4 3.6
2017-Aug-25 03:27N 30°02' W 093°46'2 0.4
2017-Aug-24 22:44N 30°02' W 093°48'4 1.5
2017-Aug-24 20:12N 30°03' W 093°44'  
Track history (hours):
 
Tides and Currents Weather Stations Pressure Air Temp Water Temp Dewpoint Dewpoint Depression Visibility Wind Speed Wind Dir Waves Ship Positions

Guadalupe

Owner: Higman Barge Lines., Inc, Orange, TX. More information available from US FCC via Universal Licensing System and Coast Guard Vessel Documentation Center.

Last reported at 2017-Sep-03 05:21 UTC. Time now 2017-Sep-23 03:43 UTC.
Position N 29°34' W 090°23'.
Warning: this ship's position is 19 days out of date.

Length 26 m; draft 3 m.

Type: Towing. MMSI: 367536590.

Date/timePositionNaut miles runAvg speedWind from/ knotsBaromVisibWave heightAir tempDewpointWater temp
2017-Sep-03 05:21N 29°34' W 090°23'1 4.0
2017-Sep-03 05:00N 29°33' W 090°24'2 4.8
2017-Sep-03 04:30N 29°33' W 090°26'3 5.5
2017-Sep-03 04:00N 29°34' W 090°30'3 5.9
2017-Sep-03 03:30N 29°34' W 090°33'3 5.3
2017-Sep-03 03:00N 29°35' W 090°36'2 4.9
2017-Sep-03 02:30N 29°35' W 090°38'2 4.6
2017-Sep-03 02:00N 29°36' W 090°41'1 2.9
2017-Sep-03 01:30N 29°36' W 090°43'2 4.0
2017-Sep-03 01:00N 29°34' W 090°43'2 4.8
2017-Sep-03 00:30N 29°33' W 090°45'3 6.3
2017-Sep-03 00:00N 29°32' W 090°49'5 6.7
2017-Sep-02 23:17N 29°33' W 090°54'2 7.0
2017-Sep-02 23:00N 29°34' W 090°56'54 4.0
2017-Sep-02 09:20N 29°51' W 091°56'1 4.3
2017-Sep-02 09:00N 29°50' W 091°58'3 5.3
2017-Sep-02 08:31N 29°50' W 092°00'2 3.9
2017-Sep-02 08:01N 29°49' W 092°03'3 5.5
2017-Sep-02 07:30N 29°48' W 092°06'3 5.5
2017-Sep-02 07:01N 29°47' W 092°09'2 4.9
2017-Sep-02 06:31N 29°47' W 092°11'2 3.6
2017-Sep-02 06:01N 29°47' W 092°13'3 5.0
2017-Sep-02 05:30N 29°48' W 092°16'3 5.5
2017-Sep-02 05:00N 29°50' W 092°18'3 5.6
2017-Sep-02 04:30N 29°51' W 092°22'36 4.8
2017-Sep-01 20:59N 29°56' W 093°02'2 4.1
2017-Sep-01 20:29N 29°56' W 093°05'2 4.6
2017-Sep-01 20:00N 29°56' W 093°07'2 4.6
2017-Sep-01 19:30N 29°57' W 093°10'2 4.1
2017-Sep-01 19:00N 29°58' W 093°11'2 4.9
2017-Sep-01 18:30N 29°60' W 093°13'2 4.3
2017-Sep-01 18:00N 30°02' W 093°15'2 4.0
2017-Sep-01 17:30N 30°04' W 093°16'2 4.4
2017-Sep-01 16:58N 30°05' W 093°18'1 2.3
2017-Sep-01 16:29N 30°06' W 093°18'1 1.9
2017-Sep-01 16:00N 30°06' W 093°19'2 3.9
2017-Sep-01 15:30N 30°04' W 093°21'2 3.2
2017-Sep-01 15:00N 30°04' W 093°23'1 2.6
2017-Sep-01 14:30N 30°04' W 093°24'0 0.1
2017-Sep-01 14:00N 30°04' W 093°24'1 1.7
2017-Sep-01 13:31N 30°04' W 093°25'3 5.4
2017-Sep-01 13:00N 30°04' W 093°28'3 6.0
2017-Sep-01 12:30N 30°04' W 093°32'3 6.3
2017-Sep-01 12:00N 30°04' W 093°35'1 1.9
2017-Sep-01 11:28N 30°04' W 093°36'0 0.0
2017-Sep-01 10:58N 30°04' W 093°37'0 0.0
2017-Sep-01 10:28N 30°04' W 093°37'0 0.0
2017-Sep-01 09:52N 30°04' W 093°37'0 0.0
2017-Sep-01 09:28N 30°04' W 093°37'0 0.0
2017-Sep-01 08:58N 30°04' W 093°37'0 0.0
2017-Sep-01 08:22N 30°04' W 093°37'0 0.0
2017-Sep-01 07:58N 30°04' W 093°37'0 0.0
2017-Sep-01 07:28N 30°04' W 093°37'0 0.0
2017-Sep-01 06:58N 30°04' W 093°37'0 0.0
2017-Sep-01 06:28N 30°04' W 093°37'0 0.0
2017-Sep-01 05:58N 30°04' W 093°37'0 0.0
2017-Sep-01 05:25N 30°04' W 093°37'0 0.0
2017-Sep-01 04:58N 30°04' W 093°37'0 0.0
2017-Sep-01 04:28N 30°04' W 093°37'0 0.2
2017-Sep-01 04:00N 30°04' W 093°37'2 4.2
2017-Sep-01 03:30N 30°04' W 093°39'2 4.3
2017-Sep-01 03:01N 30°04' W 093°42'  
2017-Aug-25 04:31N 30°05' W 093°44'0 0.6
2017-Aug-25 04:30N 30°05' W 093°44'4 3.6
2017-Aug-25 03:27N 30°02' W 093°46'2 0.4
2017-Aug-24 22:44N 30°02' W 093°48'4 1.5
2017-Aug-24 20:12N 30°03' W 093°44'  

Dump ship's entire track history